createdAt,value
2023-03-22T00:01:20.715Z,99293.38
2023-03-22T00:03:49.703Z,99283.84
2023-03-22T00:06:17.398Z,99286.75
2023-03-22T00:08:45.450Z,99294.25
2023-03-22T00:11:13.226Z,99288.56
2023-03-22T00:13:43.078Z,99287.72
2023-03-22T00:16:11.217Z,99291.78
2023-03-22T00:18:38.356Z,99290.69
2023-03-22T00:21:06.179Z,99297.56
2023-03-22T00:23:33.205Z,99292.06
2023-03-22T00:26:00.347Z,99280.75
2023-03-22T00:28:27.471Z,99288.88
2023-03-22T00:30:57.799Z,99294.88
2023-03-22T00:33:28.413Z,99291.84
2023-03-22T00:35:59.517Z,99292.91
2023-03-22T00:38:42.084Z,99297.84
2023-03-22T00:41:13.088Z,99306.00
2023-03-22T00:43:40.470Z,99310.88
2023-03-22T00:46:08.085Z,99310.41
2023-03-22T00:48:35.394Z,99314.69
2023-03-22T00:51:02.647Z,99316.41
2023-03-22T00:53:36.678Z,99320.47
2023-03-22T00:56:05.704Z,99312.00
2023-03-22T00:58:42.939Z,99326.59
2023-03-22T01:01:14.087Z,99318.28
2023-03-22T01:03:43.107Z,99330.59
2023-03-22T01:06:12.802Z,99326.75
2023-03-22T01:08:40.524Z,99330.50
2023-03-22T01:11:10.352Z,99329.66
2023-03-22T01:13:38.345Z,99334.69
2023-03-22T01:16:07.157Z,99324.34
2023-03-22T01:18:35.745Z,99320.47
2023-03-22T01:21:03.081Z,99330.81
2023-03-22T01:23:30.651Z,99338.50
2023-03-22T01:25:59.062Z,99345.09
2023-03-22T01:28:27.312Z,99343.91
2023-03-22T01:30:55.468Z,99343.50
2023-03-22T01:33:23.189Z,99352.25
2023-03-22T01:35:51.704Z,99357.00
2023-03-22T01:38:20.560Z,99364.41
2023-03-22T01:40:55.294Z,99358.13
2023-03-22T01:43:22.680Z,99362.53
2023-03-22T01:45:51.838Z,99365.22
2023-03-22T01:48:25.670Z,99372.28
2023-03-22T01:51:18.366Z,99378.50
2023-03-22T01:54:09.607Z,99378.50
2023-03-22T01:56:41.135Z,99380.84
2023-03-22T01:59:14.608Z,99370.75
2023-03-22T02:02:04.828Z,99393.09
2023-03-22T02:04:39.214Z,99386.47
2023-03-22T02:07:15.849Z,99384.53
2023-03-22T02:09:47.193Z,99377.44
2023-03-22T02:12:18.100Z,99391.84
2023-03-22T02:15:17.135Z,99387.66
2023-03-22T02:18:35.843Z,99393.19
2023-03-22T02:21:27.597Z,99392.06
2023-03-22T02:24:51.944Z,99370.88
2023-03-22T02:27:56.218Z,99395.63
2023-03-22T02:30:28.920Z,99394.28
2023-03-22T02:33:13.713Z,99403.84
2023-03-22T02:35:46.529Z,99408.59
2023-03-22T02:38:42.964Z,99412.53
2023-03-22T02:41:23.674Z,99407.97
2023-03-22T02:44:07.070Z,99407.09
2023-03-22T02:47:02.524Z,99411.91
2023-03-22T02:49:47.631Z,99420.72
2023-03-22T02:52:26.890Z,99426.53
2023-03-22T02:55:16.635Z,99427.03
2023-03-22T02:57:54.630Z,99430.44
2023-03-22T03:00:21.764Z,99430.44
2023-03-22T03:02:53.833Z,99440.53
2023-03-22T03:05:22.955Z,99444.13
2023-03-22T03:07:58.656Z,99442.00
2023-03-22T03:10:27.086Z,99438.38
2023-03-22T03:12:54.118Z,99447.94
2023-03-22T03:15:23.755Z,99443.25
2023-03-22T03:18:09.599Z,99450.25
2023-03-22T03:20:44.150Z,99452.41
2023-03-22T03:23:56.522Z,99456.03
2023-03-22T03:26:35.281Z,99459.25
2023-03-22T03:29:16.933Z,99459.38
2023-03-22T03:32:03.664Z,99463.16
2023-03-22T03:34:35.384Z,99465.94
2023-03-22T03:37:17.526Z,99472.25
2023-03-22T03:39:52.873Z,99463.47
2023-03-22T03:42:23.215Z,99477.44
2023-03-22T03:44:50.279Z,99482.84
2023-03-22T03:47:18.747Z,99484.50
2023-03-22T03:49:46.357Z,99487.28
2023-03-22T03:52:13.582Z,99488.09
2023-03-22T03:54:41.199Z,99477.47
2023-03-22T03:57:13.613Z,99485.78
2023-03-22T03:59:40.784Z,99491.63
2023-03-22T04:02:17.313Z,99500.72
2023-03-22T04:04:44.927Z,99505.97
2023-03-22T04:07:12.377Z,99501.66
2023-03-22T04:09:40.501Z,99502.34
2023-03-22T04:12:23.940Z,99507.88
2023-03-22T04:15:10.873Z,99509.56
2023-03-22T04:17:39.650Z,99515.09
2023-03-22T04:20:10.969Z,99511.84
2023-03-22T04:22:39.155Z,99510.06
2023-03-22T04:25:14.403Z,99521.28
2023-03-22T04:27:51.534Z,99517.78
2023-03-22T04:30:20.459Z,99522.75
2023-03-22T04:33:07.063Z,99517.03
2023-03-22T04:36:02.502Z,99538.53
2023-03-22T04:38:35.539Z,99539.34
2023-03-22T04:41:02.621Z,99551.22
2023-03-22T04:43:40.841Z,99545.44
2023-03-22T04:46:14.416Z,99554.03
2023-03-22T04:48:48.297Z,99562.31
2023-03-22T04:51:16.696Z,99563.13
2023-03-22T04:53:56.482Z,99571.53
2023-03-22T04:56:23.807Z,99571.91
2023-03-22T04:58:52.202Z,99575.66
2023-03-22T05:01:19.270Z,99576.56
2023-03-22T05:03:51.683Z,99573.31
2023-03-22T05:06:22.429Z,99582.81
2023-03-22T05:09:02.789Z,99581.72
2023-03-22T05:11:30.179Z,99565.63
2023-03-22T05:14:11.228Z,99582.69
2023-03-22T05:16:42.804Z,99590.97
2023-03-22T05:19:14.322Z,99593.41
2023-03-22T05:21:45.514Z,99595.59
2023-03-22T05:24:12.632Z,99606.34
2023-03-22T05:26:44.079Z,99610.69
2023-03-22T05:29:12.891Z,99609.81
2023-03-22T05:31:57.362Z,99618.28
2023-03-22T05:34:24.567Z,99628.47
2023-03-22T05:36:51.783Z,99624.72
2023-03-22T05:39:30.154Z,99633.41
2023-03-22T05:41:58.574Z,99638.28
2023-03-22T05:44:25.889Z,99642.63
2023-03-22T05:47:07.531Z,99638.03
2023-03-22T05:49:38.294Z,99645.47
2023-03-22T05:52:06.229Z,99654.81
2023-03-22T05:54:56.073Z,99658.03
2023-03-22T05:57:23.192Z,99654.28
2023-03-22T05:59:53.959Z,99670.25
2023-03-22T06:02:27.162Z,99669.59
2023-03-22T06:04:54.603Z,99663.56
2023-03-22T06:07:21.760Z,99668.47
2023-03-22T06:09:53.683Z,99668.25
2023-03-22T06:12:27.220Z,99674.03
2023-03-22T06:15:05.856Z,99683.91
2023-03-22T06:17:45.802Z,99681.13
2023-03-22T06:20:16.415Z,99677.94
2023-03-22T06:22:52.590Z,99681.13
2023-03-22T06:25:20.005Z,99687.34
2023-03-22T06:27:49.086Z,99681.53
2023-03-22T06:30:16.615Z,99688.13
2023-03-22T06:33:04.415Z,99687.84
2023-03-22T06:35:34.743Z,99689.06
2023-03-22T06:38:03.084Z,99678.03
2023-03-22T06:40:30.294Z,99676.94
2023-03-22T06:42:57.699Z,99671.84
2023-03-22T06:45:25.293Z,99685.75
2023-03-22T06:47:52.447Z,99687.44
2023-03-22T06:50:44.152Z,99694.78
2023-03-22T06:53:19.295Z,99698.13
2023-03-22T06:55:46.439Z,99689.28
2023-03-22T06:58:22.959Z,99694.59
2023-03-22T07:00:50.016Z,99691.31
2023-03-22T07:03:19.417Z,99700.25
2023-03-22T07:05:52.311Z,99709.19
2023-03-22T07:08:19.590Z,99707.28
2023-03-22T07:10:51.506Z,99693.22
2023-03-22T07:13:21.475Z,99697.34
2023-03-22T07:15:50.174Z,99705.06
2023-03-22T07:18:34.620Z,99692.44
2023-03-22T07:21:02.011Z,99699.59
2023-03-22T07:23:29.977Z,99702.31
2023-03-22T07:26:03.290Z,99710.84
2023-03-22T07:28:33.721Z,99707.59
2023-03-22T07:31:04.928Z,99705.94
2023-03-22T07:33:42.438Z,99705.94
2023-03-22T07:36:10.547Z,99716.53
2023-03-22T07:38:37.797Z,99707.44
2023-03-22T07:41:09.207Z,99720.63
2023-03-22T07:44:17.624Z,99709.16
2023-03-22T07:47:00.820Z,99707.75
2023-03-22T07:49:36.849Z,99718.63
2023-03-22T07:52:08.237Z,99717.34
2023-03-22T07:54:35.651Z,99705.16
2023-03-22T07:57:05.560Z,99718.53
2023-03-22T07:59:39.991Z,99713.97
2023-03-22T08:02:11.188Z,99696.63
2023-03-22T08:04:44.565Z,99712.00
2023-03-22T08:07:21.446Z,99719.38
2023-03-22T08:09:49.605Z,99725.69
2023-03-22T08:12:17.176Z,99719.13
2023-03-22T08:14:50.610Z,99719.66
2023-03-22T08:17:22.003Z,99717.44
2023-03-22T08:19:50.139Z,99723.72
2023-03-22T08:22:25.980Z,99727.88
2023-03-22T08:25:11.856Z,99726.84
2023-03-22T08:27:40.045Z,99732.81
2023-03-22T08:30:07.999Z,99722.44
2023-03-22T08:32:35.124Z,99725.88
2023-03-22T08:35:05.485Z,99724.16
2023-03-22T08:37:32.883Z,99733.53
2023-03-22T08:40:02.223Z,99735.16
2023-03-22T08:42:38.810Z,99730.97
2023-03-22T08:45:06.864Z,99734.69
2023-03-22T08:47:36.393Z,99720.69
2023-03-22T08:50:05.103Z,99728.66
2023-03-22T08:52:46.321Z,99737.13
2023-03-22T08:55:23.375Z,99736.25
2023-03-22T08:58:10.323Z,99729.81
2023-03-22T09:00:56.145Z,99725.84
2023-03-22T09:03:32.669Z,99725.16
2023-03-22T09:05:59.757Z,99731.28
2023-03-22T09:08:31.376Z,99735.25
2023-03-22T09:11:10.016Z,99728.47
2023-03-22T09:13:37.881Z,99737.50
2023-03-22T09:16:09.148Z,99730.69
2023-03-22T09:18:38.393Z,99726.91
2023-03-22T09:21:11.512Z,99741.78
2023-03-22T09:24:05.136Z,99740.22
2023-03-22T09:26:43.698Z,99739.69
2023-03-22T09:29:11.045Z,99746.66
2023-03-22T09:31:40.963Z,99746.75
2023-03-22T09:34:16.386Z,99740.22
2023-03-22T09:36:43.618Z,99742.84
2023-03-22T09:39:18.190Z,99743.34
2023-03-22T09:41:54.251Z,99742.59
2023-03-22T09:44:31.457Z,99750.06
2023-03-22T09:47:00.600Z,99730.94
2023-03-22T09:49:50.541Z,99745.22
2023-03-22T09:52:20.003Z,99741.75
2023-03-22T09:54:47.830Z,99746.06
2023-03-22T09:57:37.479Z,99738.97
2023-03-22T10:00:17.020Z,99747.59
2023-03-22T10:03:09.013Z,99750.03
2023-03-22T10:05:49.780Z,99745.03
2023-03-22T10:08:38.585Z,99746.44
2023-03-22T10:11:24.483Z,99740.47
2023-03-22T10:14:04.497Z,99741.53
2023-03-22T10:16:35.518Z,99728.31
2023-03-22T10:19:21.562Z,99725.31
2023-03-22T10:21:51.492Z,99744.44
2023-03-22T10:24:30.480Z,99731.38
2023-03-22T10:26:57.594Z,99740.56
2023-03-22T10:29:38.551Z,99742.22
2023-03-22T10:32:17.092Z,99743.03
2023-03-22T10:34:44.969Z,99739.72
2023-03-22T10:37:32.196Z,99737.59
2023-03-22T10:40:06.266Z,99742.66
2023-03-22T10:42:37.363Z,99747.41
2023-03-22T10:45:08.936Z,99748.69
2023-03-22T10:47:48.881Z,99747.03
2023-03-22T10:50:28.769Z,99749.66
2023-03-22T10:53:04.694Z,99753.13
2023-03-22T10:55:31.882Z,99750.63
2023-03-22T10:58:21.379Z,99743.84
2023-03-22T11:00:52.096Z,99742.59
2023-03-22T11:03:39.150Z,99737.38
2023-03-22T11:06:27.277Z,99743.53
2023-03-22T11:08:58.452Z,99729.66
2023-03-22T11:11:36.603Z,99731.97
2023-03-22T11:14:32.553Z,99739.22
2023-03-22T11:17:08.054Z,99738.09
2023-03-22T11:19:40.962Z,99737.19
2023-03-22T11:22:36.605Z,99740.28
2023-03-22T11:25:13.935Z,99738.41
2023-03-22T11:27:53.204Z,99743.16
2023-03-22T11:30:22.100Z,99736.94
2023-03-22T11:32:59.372Z,99722.47
2023-03-22T11:35:29.495Z,99736.44
2023-03-22T11:37:57.602Z,99733.81
2023-03-22T11:40:28.584Z,99730.44
2023-03-22T11:43:17.055Z,99732.78
2023-03-22T11:45:45.424Z,99730.22
2023-03-22T11:48:21.400Z,99721.84
2023-03-22T11:50:52.390Z,99734.25
2023-03-22T11:53:27.769Z,99725.91
2023-03-22T11:55:57.923Z,99731.22
2023-03-22T11:58:43.501Z,99734.75
2023-03-22T12:01:18.445Z,99731.81
2023-03-22T12:03:51.442Z,99729.66
2023-03-22T12:06:24.716Z,99714.13
2023-03-22T12:09:03.663Z,99732.72
2023-03-22T12:11:41.599Z,99729.84
2023-03-22T12:14:19.396Z,99725.63
2023-03-22T12:16:53.818Z,99726.00
2023-03-22T12:19:27.269Z,99731.25
2023-03-22T12:21:55.523Z,99720.59
2023-03-22T12:24:32.135Z,99731.38
2023-03-22T12:27:08.360Z,99720.06
2023-03-22T12:29:38.331Z,99724.53
2023-03-22T12:32:15.988Z,99727.19
2023-03-22T12:34:50.868Z,99728.41
2023-03-22T12:37:28.367Z,99719.22
2023-03-22T12:40:06.256Z,99727.47
2023-03-22T12:42:50.789Z,99726.25
2023-03-22T12:45:24.914Z,99723.47
2023-03-22T12:47:59.723Z,99723.03
2023-03-22T12:50:36.032Z,99710.22
2023-03-22T12:53:04.656Z,99716.66
2023-03-22T12:55:38.455Z,99712.59
2023-03-22T12:58:07.907Z,99713.72
2023-03-22T13:00:48.513Z,99706.56
2023-03-22T13:03:15.656Z,99704.34
2023-03-22T13:05:45.942Z,99703.16
2023-03-22T13:08:13.565Z,99700.88
2023-03-22T13:10:50.639Z,99706.88
2023-03-22T13:13:34.258Z,99703.31
2023-03-22T13:16:11.103Z,99708.38
2023-03-22T13:18:38.454Z,99695.13
2023-03-22T13:21:19.354Z,99705.66
2023-03-22T13:23:53.723Z,99703.13
2023-03-22T13:26:23.874Z,99707.63
2023-03-22T13:28:59.530Z,99708.50
2023-03-22T13:31:53.907Z,99707.34
2023-03-22T13:34:33.865Z,99698.59
2023-03-22T13:37:03.724Z,99695.06
2023-03-22T13:39:36.148Z,99692.28
2023-03-22T13:42:08.881Z,99693.69
2023-03-22T13:44:39.849Z,99703.84
2023-03-22T13:47:46.018Z,99692.03
2023-03-22T13:50:22.193Z,99692.59
2023-03-22T13:53:15.651Z,99693.50
2023-03-22T13:55:52.215Z,99703.44
2023-03-22T13:58:33.138Z,99697.78
2023-03-22T14:01:01.143Z,99692.50
2023-03-22T14:03:35.414Z,99698.34
2023-03-22T14:06:10.962Z,99691.16
2023-03-22T14:08:40.824Z,99685.88
2023-03-22T14:11:20.402Z,99681.22
2023-03-22T14:13:51.509Z,99674.59
2023-03-22T14:16:23.176Z,99679.63
2023-03-22T14:18:51.232Z,99676.63
2023-03-22T14:21:48.635Z,99681.84
